createdAt,value
2019-02-02T00:00:55.742Z,7.60
2019-02-02T00:03:22.937Z,7.90
2019-02-02T00:05:50.135Z,7.87
2019-02-02T00:08:17.194Z,7.00
2019-02-02T00:10:44.293Z,7.70
2019-02-02T00:13:11.413Z,8.90
2019-02-02T00:15:38.822Z,7.87
2019-02-02T00:18:05.925Z,8.10
2019-02-02T00:20:32.981Z,7.80
2019-02-02T00:23:00.121Z,7.90
2019-02-02T00:25:27.284Z,8.17
2019-02-02T00:27:54.401Z,9.17
2019-02-02T00:30:21.543Z,7.60
2019-02-02T00:32:48.943Z,8.40
2019-02-02T00:35:16.028Z,8.20
2019-02-02T00:37:43.368Z,8.20
2019-02-02T00:40:17.413Z,8.23
2019-02-02T00:42:44.668Z,8.37
2019-02-02T00:45:17.968Z,9.67
2019-02-02T00:47:45.107Z,9.00
2019-02-02T00:50:14.608Z,9.60
2019-02-02T00:52:42.267Z,10.03
2019-02-02T00:55:18.208Z,10.20
2019-02-02T00:57:53.006Z,12.50
2019-02-02T01:00:20.107Z,15.97
2019-02-02T01:02:47.708Z,18.77
2019-02-02T01:05:18.745Z,22.43
2019-02-02T01:07:46.488Z,26.83
2019-02-02T01:10:37.928Z,26.50
2019-02-02T01:13:05.487Z,27.17
2019-02-02T01:15:32.688Z,26.97
2019-02-02T01:18:00.027Z,27.47
2019-02-02T01:20:27.747Z,27.30
2019-02-02T01:22:54.868Z,27.50
2019-02-02T01:25:21.974Z,27.60
2019-02-02T01:27:49.388Z,26.70
2019-02-02T01:30:22.009Z,27.43
2019-02-02T01:32:49.187Z,26.87
2019-02-02T01:35:18.271Z,26.20
2019-02-02T01:37:45.587Z,26.80
2019-02-02T01:40:17.558Z,24.47
2019-02-02T01:42:45.129Z,26.20
2019-02-02T01:45:19.788Z,24.63
2019-02-02T01:47:46.929Z,23.30
2019-02-02T01:50:18.747Z,24.90
2019-02-02T01:52:45.814Z,25.07
2019-02-02T01:55:15.950Z,21.90
2019-02-02T01:57:43.348Z,26.37
2019-02-02T02:00:15.952Z,26.47
2019-02-02T02:02:43.047Z,27.10
2019-02-02T02:05:10.367Z,28.77
2019-02-02T02:07:37.747Z,26.97
2019-02-02T02:10:33.028Z,28.17
2019-02-02T02:13:00.392Z,29.43
2019-02-02T02:15:27.666Z,30.33
2019-02-02T02:17:54.787Z,30.73
2019-02-02T02:20:24.351Z,30.13
2019-02-02T02:22:51.548Z,30.70
2019-02-02T02:25:20.039Z,32.93
2019-02-02T02:27:48.986Z,33.03
2019-02-02T02:30:19.346Z,33.00
2019-02-02T02:32:46.825Z,32.60
2019-02-02T02:35:14.427Z,31.90
2019-02-02T02:37:41.488Z,31.50
2019-02-02T02:40:20.029Z,32.97
2019-02-02T02:42:47.305Z,33.87
2019-02-02T02:45:14.727Z,31.07
2019-02-02T02:47:41.770Z,33.73
2019-02-02T02:50:19.828Z,32.70
2019-02-02T02:53:06.729Z,32.60
2019-02-02T02:55:33.809Z,35.23
2019-02-02T02:58:00.888Z,31.43
2019-02-02T03:00:29.448Z,32.20
2019-02-02T03:02:56.808Z,32.90
2019-02-02T03:05:24.230Z,32.03
2019-02-02T03:07:53.125Z,32.57
2019-02-02T03:10:23.392Z,33.30
2019-02-02T03:12:50.668Z,32.17
2019-02-02T03:15:18.389Z,31.70
2019-02-02T03:17:46.228Z,30.20
2019-02-02T03:20:15.005Z,30.27
2019-02-02T03:22:42.726Z,30.87
2019-02-02T03:25:13.490Z,31.60
2019-02-02T03:27:40.650Z,30.90
2019-02-02T03:30:12.029Z,31.33
2019-02-02T03:32:39.149Z,31.40
2019-02-02T03:35:08.548Z,30.10
2019-02-02T03:37:36.005Z,30.70
2019-02-02T03:40:11.185Z,29.97
2019-02-02T03:42:38.645Z,30.03
2019-02-02T03:45:09.846Z,32.30
2019-02-02T03:47:36.965Z,31.77
2019-02-02T03:50:09.565Z,30.93
2019-02-02T03:52:36.705Z,32.27
2019-02-02T03:55:08.267Z,30.43
2019-02-02T03:57:35.425Z,29.93
2019-02-02T04:00:07.947Z,33.43
2019-02-02T04:02:35.036Z,31.33
2019-02-02T04:05:03.467Z,31.80
2019-02-02T04:07:30.967Z,31.97
2019-02-02T04:09:58.223Z,31.33
2019-02-02T04:12:25.266Z,32.07
2019-02-02T04:14:52.507Z,31.93
2019-02-02T04:17:19.588Z,31.73
2019-02-02T04:19:46.687Z,31.97
2019-02-02T04:22:13.759Z,33.60
2019-02-02T04:24:40.806Z,31.73
2019-02-02T04:27:07.906Z,32.23
2019-02-02T04:29:35.086Z,33.17
2019-02-02T04:32:02.326Z,31.07
2019-02-02T04:34:29.646Z,33.23
2019-02-02T04:36:56.701Z,33.67
2019-02-02T04:39:23.863Z,30.87
2019-02-02T04:41:50.966Z,31.27
2019-02-02T04:44:18.067Z,33.40
2019-02-02T04:46:45.188Z,32.93
2019-02-02T04:49:12.327Z,33.27
2019-02-02T04:51:39.406Z,34.23
2019-02-02T04:54:06.768Z,35.67
2019-02-02T04:56:33.898Z,32.30
2019-02-02T04:59:01.634Z,32.47
2019-02-02T05:01:28.786Z,33.20
2019-02-02T05:03:55.868Z,36.33
2019-02-02T05:06:23.027Z,34.17
2019-02-02T05:08:50.093Z,34.13
2019-02-02T05:11:17.171Z,35.83
2019-02-02T05:13:44.306Z,32.97
2019-02-02T05:16:11.381Z,32.93
2019-02-02T05:18:38.447Z,35.67
2019-02-02T05:21:05.571Z,33.60
2019-02-02T05:23:32.770Z,32.50
2019-02-02T05:25:59.786Z,32.13
2019-02-02T05:28:26.887Z,33.67
2019-02-02T05:30:54.028Z,32.00
2019-02-02T05:33:21.088Z,33.60
2019-02-02T05:35:48.249Z,34.47
2019-02-02T05:38:15.310Z,33.73
2019-02-02T05:40:42.492Z,33.77
2019-02-02T05:43:09.568Z,34.60
2019-02-02T05:45:36.727Z,33.60
2019-02-02T05:48:03.827Z,34.37
2019-02-02T05:50:30.967Z,35.97
2019-02-02T05:52:58.167Z,36.57
2019-02-02T05:55:25.266Z,36.60
2019-02-02T05:57:52.448Z,34.97
2019-02-02T06:53:20.576Z,36.27
2019-02-02T06:55:47.738Z,37.20
2019-02-02T06:58:14.771Z,36.77
2019-02-02T07:00:41.866Z,36.00
2019-02-02T07:03:10.761Z,38.70
2019-02-02T07:05:37.888Z,39.10
2019-02-02T07:08:05.425Z,38.43
2019-02-02T07:10:32.626Z,39.13
2019-02-02T07:12:59.845Z,37.73
2019-02-02T07:15:29.128Z,36.53
2019-02-02T07:17:56.347Z,36.33
2019-02-02T07:20:23.545Z,36.47
2019-02-02T07:22:50.647Z,34.37
2019-02-02T07:25:17.886Z,35.30
2019-02-02T07:27:45.188Z,33.57
2019-02-02T07:30:28.233Z,36.67
2019-02-02T07:32:48.246Z,34.87
2019-02-02T07:35:15.450Z,34.73
2019-02-02T07:37:42.591Z,33.27
2019-02-02T07:40:14.047Z,33.43
2019-02-02T07:42:41.207Z,31.87
2019-02-02T07:45:15.967Z,33.20
2019-02-02T07:47:43.426Z,33.03
2019-02-02T07:50:14.567Z,33.97
2019-02-02T07:52:41.746Z,33.93
2019-02-02T07:55:13.102Z,33.50
2019-02-02T07:57:40.222Z,32.70
2019-02-02T08:00:21.682Z,33.33
2019-02-02T08:02:48.906Z,35.13
2019-02-02T08:05:16.136Z,36.73
2019-02-02T08:07:43.317Z,37.40
2019-02-02T08:10:12.517Z,36.13
2019-02-02T08:12:39.759Z,35.97
2019-02-02T08:15:32.138Z,34.70
2019-02-02T08:17:59.610Z,34.90
2019-02-02T08:20:27.000Z,35.77
2019-02-02T08:22:56.508Z,35.37
2019-02-02T08:25:23.338Z,34.50
2019-02-02T08:27:50.519Z,35.20
2019-02-02T08:30:24.218Z,35.53
2019-02-02T08:32:51.357Z,35.07
2019-02-02T08:35:18.537Z,35.70
2019-02-02T08:37:46.734Z,36.93
2019-02-02T08:40:16.762Z,35.37
2019-02-02T08:42:43.815Z,36.40
2019-02-02T08:45:12.794Z,35.70
2019-02-02T08:47:40.035Z,34.80
2019-02-02T08:50:17.181Z,36.00
2019-02-02T08:52:44.302Z,35.63
2019-02-02T08:55:11.692Z,33.33
2019-02-02T08:57:39.003Z,33.73
2019-02-02T09:00:14.322Z,34.27
2019-02-02T09:02:41.604Z,33.83
2019-02-02T09:05:11.702Z,34.47
2019-02-02T09:07:38.802Z,33.77
2019-02-02T09:10:14.321Z,34.67
2019-02-02T09:12:41.581Z,32.43
2019-02-02T09:15:12.734Z,33.47
2019-02-02T09:17:41.225Z,32.97
2019-02-02T09:20:13.761Z,33.20
2019-02-02T09:22:41.282Z,33.23
2019-02-02T09:25:12.743Z,33.10
2019-02-02T09:27:40.053Z,33.00
2019-02-02T09:30:15.617Z,32.80
2019-02-02T09:32:42.748Z,35.20
2019-02-02T09:35:10.308Z,33.27
2019-02-02T09:37:37.508Z,34.30
2019-02-02T09:40:10.090Z,33.80
2019-02-02T09:42:37.247Z,33.50
2019-02-02T09:45:09.168Z,33.23
2019-02-02T09:47:36.327Z,33.67
2019-02-02T09:50:08.530Z,33.30
2019-02-02T09:52:35.738Z,34.00
2019-02-02T09:55:07.412Z,34.57
2019-02-02T09:57:36.849Z,33.63
2019-02-02T10:00:09.016Z,33.13
2019-02-02T10:02:36.117Z,32.53
2019-02-02T10:05:05.717Z,33.93
2019-02-02T10:07:35.371Z,33.33
2019-02-02T10:10:14.763Z,32.50
2019-02-02T10:12:41.897Z,33.73
2019-02-02T10:15:10.090Z,32.97
2019-02-02T10:17:37.251Z,33.13
2019-02-02T10:20:24.528Z,33.87
2019-02-02T10:22:52.381Z,32.17
2019-02-02T10:25:22.616Z,32.90
2019-02-02T10:27:49.753Z,31.97
2019-02-02T10:30:33.657Z,32.17
2019-02-02T10:33:00.716Z,32.20
2019-02-02T10:35:27.973Z,31.07
2019-02-02T10:37:55.868Z,31.43
2019-02-02T10:40:23.107Z,32.60
2019-02-02T10:42:50.273Z,32.77
2019-02-02T10:45:18.980Z,32.77
2019-02-02T10:47:45.993Z,32.03
2019-02-02T10:50:17.197Z,31.33
2019-02-02T10:52:45.158Z,32.93
2019-02-02T10:55:14.450Z,32.03
2019-02-02T10:57:41.552Z,30.23
2019-02-02T11:00:14.652Z,31.53
2019-02-02T11:02:41.812Z,32.63
2019-02-02T11:05:09.391Z,32.20
2019-02-02T11:07:36.493Z,32.07
2019-02-02T11:10:09.408Z,31.87
2019-02-02T11:12:36.725Z,31.37
2019-02-02T11:15:09.720Z,30.60
2019-02-02T11:17:37.032Z,31.57
2019-02-02T11:20:09.760Z,30.90
2019-02-02T11:22:37.377Z,31.73
2019-02-02T11:25:09.492Z,31.83
2019-02-02T11:27:36.718Z,31.60
2019-02-02T11:30:11.411Z,30.00
2019-02-02T11:32:38.566Z,31.27
2019-02-02T11:35:10.426Z,29.97
2019-02-02T11:37:37.525Z,30.63
2019-02-02T11:40:25.210Z,30.63
2019-02-02T11:42:52.421Z,29.47
2019-02-02T11:45:19.965Z,31.37
2019-02-02T11:47:46.983Z,30.67
2019-02-02T11:50:17.822Z,30.00
2019-02-02T11:52:44.960Z,30.00
2019-02-02T11:55:15.406Z,29.00
2019-02-02T11:57:42.645Z,30.53
2019-02-02T12:00:23.777Z,31.27
2019-02-02T12:02:51.237Z,30.30
2019-02-02T12:05:18.492Z,28.83
2019-02-02T12:07:45.959Z,29.07
2019-02-02T12:10:25.441Z,28.33
2019-02-02T12:12:52.558Z,27.50
2019-02-02T12:15:19.660Z,28.10
2019-02-02T12:17:47.297Z,29.10
2019-02-02T12:20:17.317Z,27.97
2019-02-02T12:22:44.536Z,29.27
2019-02-02T12:25:12.179Z,28.20
2019-02-02T12:27:39.362Z,30.23
2019-02-02T12:30:11.713Z,30.43
2019-02-02T12:32:38.734Z,30.70
2019-02-02T12:35:15.974Z,31.00
2019-02-02T12:37:43.049Z,29.63
2019-02-02T12:40:14.447Z,29.43
2019-02-02T12:42:41.923Z,27.93
2019-02-02T12:45:22.703Z,29.07
2019-02-02T12:47:50.093Z,28.60
2019-02-02T12:50:17.151Z,28.73
2019-02-02T12:52:44.222Z,28.27
2019-02-02T12:55:11.634Z,29.17
2019-02-02T12:57:38.976Z,28.90
2019-02-02T13:00:18.397Z,29.70
2019-02-02T13:02:45.936Z,27.60
2019-02-02T13:05:15.928Z,29.00
2019-02-02T13:07:43.089Z,26.83
2019-02-02T13:10:17.866Z,27.70
2019-02-02T13:12:44.987Z,27.17
2019-02-02T13:15:12.647Z,27.33
2019-02-02T13:17:39.806Z,27.67
2019-02-02T13:20:11.670Z,28.27
2019-02-02T13:22:39.052Z,29.23
2019-02-02T13:25:16.266Z,30.47
2019-02-02T13:27:43.426Z,28.47
2019-02-02T13:30:18.566Z,29.20
2019-02-02T13:32:49.787Z,28.60
2019-02-02T13:35:16.791Z,28.63
2019-02-02T13:37:43.979Z,28.60
2019-02-02T13:40:18.004Z,28.70
2019-02-02T13:42:45.575Z,28.53
2019-02-02T13:45:16.527Z,28.27
2019-02-02T13:47:43.725Z,29.93
2019-02-02T13:50:14.368Z,28.30
2019-02-02T13:52:41.811Z,29.67
2019-02-02T13:55:09.277Z,29.30
2019-02-02T13:57:36.362Z,27.77
2019-02-02T14:00:14.288Z,27.90
2019-02-02T14:02:41.275Z,29.33
2019-02-02T14:05:13.046Z,30.07
2019-02-02T14:07:40.172Z,29.00
2019-02-02T14:10:20.187Z,29.83
2019-02-02T14:12:47.326Z,28.03
2019-02-02T14:15:15.386Z,26.50
2019-02-02T14:17:42.848Z,26.33
2019-02-02T14:20:12.705Z,25.57
2019-02-02T14:22:40.254Z,25.30
2019-02-02T14:25:11.293Z,25.90
2019-02-02T14:27:38.400Z,25.07
2019-02-02T14:30:11.067Z,23.80
2019-02-02T14:32:38.192Z,24.83
2019-02-02T14:35:09.688Z,23.87
2019-02-02T14:37:36.813Z,24.00
2019-02-02T14:40:08.868Z,25.57
2019-02-02T14:42:35.995Z,24.13
2019-02-02T14:45:08.172Z,24.23
2019-02-02T14:47:35.278Z,24.10
2019-02-02T14:50:04.258Z,22.03
2019-02-02T14:52:31.398Z,23.67
2019-02-02T14:54:58.671Z,23.43
2019-02-02T14:57:25.842Z,23.10
2019-02-02T14:59:53.050Z,22.27
2019-02-02T15:02:20.103Z,24.40
2019-02-02T15:04:47.282Z,22.77
2019-02-02T15:07:14.507Z,24.40
2019-02-02T15:09:41.653Z,22.53
2019-02-02T15:12:08.815Z,22.40
2019-02-02T15:14:35.950Z,22.90
2019-02-02T15:17:02.989Z,23.30
2019-02-02T15:19:30.578Z,24.87
2019-02-02T15:21:57.797Z,23.07
2019-02-02T15:24:25.080Z,23.20
2019-02-02T15:26:52.319Z,23.70
2019-02-02T15:29:19.451Z,23.60
2019-02-02T15:31:46.835Z,23.60
2019-02-02T15:34:13.974Z,23.40
2019-02-02T15:36:41.334Z,23.20
2019-02-02T15:39:08.974Z,25.00
2019-02-02T15:41:36.016Z,24.23
2019-02-02T15:44:03.681Z,24.40
2019-02-02T15:46:30.935Z,24.50
2019-02-02T15:48:58.213Z,25.63
2019-02-02T15:51:25.331Z,23.97
2019-02-02T15:53:52.492Z,24.63
2019-02-02T15:56:19.536Z,24.07
2019-02-02T15:58:47.688Z,23.27
2019-02-02T16:01:14.819Z,22.83
2019-02-02T16:03:49.358Z,24.13
2019-02-02T16:06:11.140Z,23.77
2019-02-02T16:08:38.202Z,23.77
2019-02-02T16:11:05.340Z,24.00
2019-02-02T16:13:32.446Z,23.50
2019-02-02T16:15:59.586Z,24.63
2019-02-02T16:18:26.788Z,23.03
2019-02-02T16:20:53.920Z,23.23
2019-02-02T16:23:21.084Z,23.50
2019-02-02T16:25:48.264Z,25.23
2019-02-02T16:28:15.483Z,23.17
2019-02-02T16:30:42.661Z,23.37
2019-02-02T16:33:09.882Z,24.63
2019-02-02T16:35:37.053Z,23.77
2019-02-02T16:38:05.348Z,26.00
2019-02-02T16:40:32.447Z,29.13
2019-02-02T16:42:59.568Z,28.93
2019-02-02T16:45:30.407Z,24.90
2019-02-02T16:47:57.708Z,25.63
2019-02-02T16:50:25.007Z,27.27
2019-02-02T16:52:52.368Z,27.63
2019-02-02T16:55:19.581Z,29.27
2019-02-02T16:57:47.137Z,28.37
2019-02-02T17:00:24.202Z,24.13
2019-02-02T17:02:57.222Z,23.33
2019-02-02T17:05:24.322Z,24.63
2019-02-02T17:07:51.723Z,24.77
2019-02-02T17:10:28.763Z,24.27
2019-02-02T17:12:56.508Z,22.40
2019-02-02T17:15:23.783Z,22.80
2019-02-02T17:17:50.942Z,21.20
2019-02-02T17:20:22.882Z,24.83
2019-02-02T17:22:50.023Z,25.07
2019-02-02T17:25:22.611Z,26.20
2019-02-02T17:27:50.202Z,23.30
2019-02-02T17:30:25.203Z,25.00
2019-02-02T17:32:59.023Z,24.83
2019-02-02T17:35:26.403Z,24.90
2019-02-02T17:37:53.745Z,25.37
2019-02-02T17:40:27.023Z,24.97
2019-02-02T17:42:54.102Z,23.50
2019-02-02T17:45:22.842Z,24.83
2019-02-02T17:47:50.224Z,23.60
2019-02-02T17:50:22.102Z,23.37
2019-02-02T17:52:49.705Z,24.07
2019-02-02T17:55:17.305Z,24.13
2019-02-02T17:57:45.203Z,25.47
2019-02-02T18:00:38.962Z,25.70
2019-02-02T18:03:06.102Z,25.07
2019-02-02T18:05:33.163Z,24.70
2019-02-02T18:08:00.324Z,24.67
2019-02-02T18:10:27.517Z,25.07
2019-02-02T18:12:54.664Z,24.70
2019-02-02T18:15:21.741Z,24.13
2019-02-02T18:17:48.867Z,25.90
2019-02-02T18:20:16.246Z,25.07
2019-02-02T18:22:44.610Z,25.57
2019-02-02T18:25:16.223Z,25.50
2019-02-02T18:27:43.543Z,26.30
2019-02-02T18:30:22.202Z,26.97
2019-02-02T18:32:50.703Z,28.37
2019-02-02T18:35:17.983Z,27.47
2019-02-02T18:37:45.123Z,27.50
2019-02-02T18:40:23.647Z,26.77
2019-02-02T18:42:50.942Z,28.43
2019-02-02T18:45:24.802Z,27.00
2019-02-02T18:47:52.243Z,28.13
2019-02-02T18:50:19.383Z,27.60
2019-02-02T18:52:48.930Z,26.93
2019-02-02T18:55:36.023Z,25.07
2019-02-02T18:58:04.004Z,23.47
2019-02-02T19:00:31.125Z,25.03
2019-02-02T19:02:58.244Z,25.00
2019-02-02T19:05:25.315Z,23.77
2019-02-02T19:07:52.373Z,24.40
2019-02-02T19:10:29.241Z,25.13
2019-02-02T19:12:56.342Z,24.93
2019-02-02T19:15:23.418Z,25.60
2019-02-02T19:17:50.718Z,25.53
2019-02-02T19:20:20.300Z,25.70
2019-02-02T19:22:47.779Z,26.33
2019-02-02T19:25:14.840Z,27.70
2019-02-02T19:27:42.199Z,27.87
2019-02-02T19:30:31.459Z,28.17
2019-02-02T19:32:58.805Z,27.00
2019-02-02T19:35:26.102Z,28.73
2019-02-02T19:37:53.170Z,31.77
2019-02-02T19:40:20.364Z,30.57
2019-02-02T19:42:47.487Z,30.87
2019-02-02T19:45:24.283Z,31.53
2019-02-02T19:47:52.008Z,32.07
2019-02-02T19:50:24.448Z,32.20
2019-02-02T19:52:52.107Z,35.20
2019-02-02T19:55:19.190Z,34.23
2019-02-02T19:57:46.627Z,34.37
2019-02-02T20:00:26.413Z,32.83
2019-02-02T20:02:53.782Z,32.70
2019-02-02T20:05:28.633Z,32.27
2019-02-02T20:07:50.032Z,33.40
2019-02-02T20:10:18.233Z,32.80
2019-02-02T20:12:45.345Z,31.43
2019-02-02T20:15:15.288Z,32.27
2019-02-02T20:17:45.431Z,31.93
2019-02-02T20:20:18.888Z,32.70
2019-02-02T20:22:46.078Z,33.57
2019-02-02T20:25:14.367Z,31.17
2019-02-02T20:27:41.510Z,30.77
2019-02-02T20:30:13.849Z,30.63
2019-02-02T20:32:41.022Z,32.73
2019-02-02T20:35:12.448Z,31.23
2019-02-02T20:37:39.688Z,31.27
2019-02-02T20:40:14.231Z,32.30
2019-02-02T20:42:41.592Z,31.13
2019-02-02T20:45:15.948Z,32.87
2019-02-02T20:47:43.108Z,31.63
2019-02-02T20:50:14.310Z,31.17
2019-02-02T20:52:47.674Z,32.20
2019-02-02T20:55:18.035Z,33.83
2019-02-02T20:57:46.046Z,34.67
2019-02-02T21:00:17.669Z,31.97
2019-02-02T21:02:44.828Z,32.67
2019-02-02T21:05:12.368Z,33.37
2019-02-02T21:07:39.529Z,34.07
2019-02-02T21:10:12.135Z,33.93
2019-02-02T21:12:39.258Z,33.70
2019-02-02T21:15:10.409Z,32.80
2019-02-02T21:17:37.768Z,34.13
2019-02-02T21:20:14.947Z,33.23
2019-02-02T21:22:42.389Z,33.73
2019-02-02T21:25:11.948Z,33.30
2019-02-02T21:27:39.771Z,34.07
2019-02-02T21:30:12.469Z,34.33
2019-02-02T21:32:39.588Z,33.43
2019-02-02T21:35:07.448Z,34.03
2019-02-02T21:37:54.829Z,35.57
2019-02-02T21:40:29.329Z,34.67
2019-02-02T21:42:56.528Z,36.13
2019-02-02T21:45:23.968Z,35.63
2019-02-02T21:47:51.788Z,35.47
2019-02-02T21:50:21.468Z,34.73
2019-02-02T21:52:49.386Z,34.43
2019-02-02T21:55:28.146Z,36.77
2019-02-02T21:57:55.205Z,37.27
2019-02-02T22:00:29.386Z,38.23
2019-02-02T22:02:56.566Z,38.63
2019-02-02T22:05:23.728Z,38.03
2019-02-02T22:07:51.367Z,37.70
2019-02-02T22:10:18.754Z,38.73
2019-02-02T22:12:45.922Z,38.57
2019-02-02T22:15:26.232Z,39.37
2019-02-02T22:17:53.414Z,42.63
2019-02-02T22:20:20.612Z,40.97
2019-02-02T22:22:47.871Z,41.13
2019-02-02T22:25:39.271Z,40.67
2019-02-02T22:28:06.412Z,39.93
2019-02-02T22:30:36.232Z,39.70
2019-02-02T22:33:04.032Z,40.63
2019-02-02T22:35:31.191Z,40.50
2019-02-02T22:37:58.694Z,41.27
2019-02-02T22:40:27.496Z,39.73
2019-02-02T22:42:54.995Z,41.90
2019-02-02T22:45:23.171Z,41.33
2019-02-02T22:47:50.840Z,41.23
2019-02-02T22:50:26.711Z,44.50
2019-02-02T22:52:54.492Z,42.97
2019-02-02T22:55:23.553Z,43.23
2019-02-02T22:57:51.253Z,42.43
2019-02-02T23:00:59.293Z,42.67
2019-02-02T23:03:37.412Z,44.00
2019-02-02T23:06:46.619Z,43.70
2019-02-02T23:09:59.119Z,44.53
2019-02-02T23:12:46.319Z,42.63
2019-02-02T23:15:49.182Z,43.67
2019-02-02T23:18:16.320Z,42.37
2019-02-02T23:20:43.438Z,43.30
2019-02-02T23:23:10.598Z,43.63
2019-02-02T23:25:38.527Z,42.97
2019-02-02T23:28:05.883Z,42.83
2019-02-02T23:30:33.019Z,42.07
2019-02-02T23:33:00.182Z,42.17
2019-02-02T23:35:27.277Z,41.07
2019-02-02T23:37:54.459Z,42.23
2019-02-02T23:40:21.559Z,42.97
2019-02-02T23:42:48.914Z,43.80
2019-02-02T23:45:16.066Z,42.97
2019-02-02T23:47:43.181Z,44.10
2019-02-02T23:50:10.599Z,44.13
2019-02-02T23:52:37.759Z,41.30
2019-02-02T23:55:08.340Z,43.17
2019-02-02T23:57:35.680Z,43.57
